8NA1 weather

Deep River Seaplane Base
Upham, North Dakota, United States

Public forecast

Using degrees Fahrenheit for public forecast. Weather courtesy of forecast.io.

Closest aviation weather report (METAR) to Deep River Seaplane Base

Closest report is Minot Air Force Base, 26.0 nm (48.2 km) WSW. Retrieved 2020/02/20 00:56 UTC (51 minutes ago):

KMIB 200056Z AUTO 21008KT 10SM CLR M15/M22 A3056 RMK AO2 SLP406 T11471218

Closest aviation forecast (TAF) to Deep River Seaplane Base

Closest forecast is Minot Air Force Base, 26.0 nm (48.2 km) WSW. Retrieved 2020-02-20 01:06 UTC (41 minutes ago):

TAF KMIB 200100Z 2001/2107 VRB06KT 9999 SKC QNH3034INS BECMG 2018/2019 23010G15KT 9999 SKC QNH3000INS TX01/2021Z TNM15/2003Z